sensor_id;sensor_type;location;lat;lon;timestamp;pressure;altitude;pressure_sealevel;temperature;humidity
42067;BME280;27734;47.028;28.820;2023-03-15T00:00:23;99820.73;;;3.39;57.70
42067;BME280;27734;47.028;28.820;2023-03-15T00:03:14;99819.86;;;3.38;58.61
42067;BME280;27734;47.028;28.820;2023-03-15T00:05:47;99821.45;;;3.36;59.31
42067;BME280;27734;47.028;28.820;2023-03-15T00:08:19;99824.72;;;3.32;59.20
42067;BME280;27734;47.028;28.820;2023-03-15T00:10:51;99822.05;;;3.31;58.84
42067;BME280;27734;47.028;28.820;2023-03-15T00:13:22;99835.80;;;3.30;59.30
42067;BME280;27734;47.028;28.820;2023-03-15T00:15:57;99831.33;;;3.27;60.08
42067;BME280;27734;47.028;28.820;2023-03-15T00:18:29;99832.08;;;3.24;58.26
42067;BME280;27734;47.028;28.820;2023-03-15T00:21:00;99826.89;;;3.24;58.48
42067;BME280;27734;47.028;28.820;2023-03-15T00:23:32;99823.39;;;3.24;57.90
42067;BME280;27734;47.028;28.820;2023-03-15T00:26:03;99832.87;;;3.23;58.49
42067;BME280;27734;47.028;28.820;2023-03-15T00:28:34;99819.91;;;3.23;57.72
42067;BME280;27734;47.028;28.820;2023-03-15T00:31:11;99818.13;;;3.22;58.19
42067;BME280;27734;47.028;28.820;2023-03-15T00:33:43;99808.66;;;3.23;58.60
42067;BME280;27734;47.028;28.820;2023-03-15T00:36:15;99807.83;;;3.24;58.29
42067;BME280;27734;47.028;28.820;2023-03-15T00:38:46;99814.89;;;3.27;58.10
42067;BME280;27734;47.028;28.820;2023-03-15T00:41:19;99799.97;;;3.22;58.11
42067;BME280;27734;47.028;28.820;2023-03-15T00:43:51;99805.16;;;3.22;57.67
42067;BME280;27734;47.028;28.820;2023-03-15T00:46:22;99793.91;;;3.22;58.45
42067;BME280;27734;47.028;28.820;2023-03-15T00:48:53;99795.62;;;3.21;57.76
42067;BME280;27734;47.028;28.820;2023-03-15T00:51:24;99796.33;;;3.19;58.65
42067;BME280;27734;47.028;28.820;2023-03-15T00:53:56;99791.86;;;3.16;58.04
42067;BME280;27734;47.028;28.820;2023-03-15T00:56:29;99795.28;;;3.15;58.12
42067;BME280;27734;47.028;28.820;2023-03-15T00:59:04;99796.16;;;3.16;58.77
42067;BME280;27734;47.028;28.820;2023-03-15T01:01:36;99800.39;;;3.14;59.01
42067;BME280;27734;47.028;28.820;2023-03-15T01:04:09;99803.77;;;3.13;59.73
42067;BME280;27734;47.028;28.820;2023-03-15T01:06:41;99792.36;;;3.09;60.44
42067;BME280;27734;47.028;28.820;2023-03-15T01:09:12;99792.99;;;3.05;60.21
42067;BME280;27734;47.028;28.820;2023-03-15T01:11:44;99790.23;;;3.02;60.37
42067;BME280;27734;47.028;28.820;2023-03-15T01:14:15;99785.80;;;2.99;59.49
42067;BME280;27734;47.028;28.820;2023-03-15T01:16:47;99777.94;;;2.98;59.21
42067;BME280;27734;47.028;28.820;2023-03-15T01:19:19;99770.95;;;2.97;59.47
42067;BME280;27734;47.028;28.820;2023-03-15T01:21:50;99769.25;;;2.97;59.72
42067;BME280;27734;47.028;28.820;2023-03-15T01:24:22;99761.47;;;2.97;59.73
42067;BME280;27734;47.028;28.820;2023-03-15T01:26:53;99758.00;;;2.97;60.27
42067;BME280;27734;47.028;28.820;2023-03-15T01:29:24;99762.38;;;2.98;59.42
42067;BME280;27734;47.028;28.820;2023-03-15T01:31:56;99757.28;;;2.99;59.45
42067;BME280;27734;47.028;28.820;2023-03-15T01:34:27;99741.73;;;2.99;60.26
42067;BME280;27734;47.028;28.820;2023-03-15T01:36:59;99741.65;;;2.98;59.82
42067;BME280;27734;47.028;28.820;2023-03-15T01:39:36;99738.06;;;2.96;59.44
42067;BME280;27734;47.028;28.820;2023-03-15T01:42:08;99744.08;;;2.95;59.45
42067;BME280;27734;47.028;28.820;2023-03-15T01:44:54;99750.86;;;2.93;59.87
42067;BME280;27734;47.028;28.820;2023-03-15T01:47:26;99742.83;;;2.88;59.65
42067;BME280;27734;47.028;28.820;2023-03-15T01:50:03;99740.08;;;2.85;62.17
42067;BME280;27734;47.028;28.820;2023-03-15T01:52:38;99739.98;;;2.83;60.56
42067;BME280;27734;47.028;28.820;2023-03-15T01:55:19;99739.98;;;2.83;60.75
42067;BME280;27734;47.028;28.820;2023-03-15T01:58:12;99738.39;;;2.85;61.30
42067;BME280;27734;47.028;28.820;2023-03-15T02:00:46;99734.34;;;2.91;60.33
42067;BME280;27734;47.028;28.820;2023-03-15T02:03:20;99732.08;;;2.97;60.90
42067;BME280;27734;47.028;28.820;2023-03-15T02:05:57;99734.20;;;3.04;61.06
42067;BME280;27734;47.028;28.820;2023-03-15T02:08:50;99742.60;;;3.16;63.16
42067;BME280;27734;47.028;28.820;2023-03-15T02:11:25;99741.97;;;3.20;62.23
42067;BME280;27734;47.028;28.820;2023-03-15T02:13:58;99734.43;;;3.25;61.67
42067;BME280;27734;47.028;28.820;2023-03-15T02:16:30;99739.86;;;3.30;61.15
42067;BME280;27734;47.028;28.820;2023-03-15T02:19:04;99735.88;;;3.36;62.08
42067;BME280;27734;47.028;28.820;2023-03-15T02:21:46;99736.95;;;3.40;62.64
42067;BME280;27734;47.028;28.820;2023-03-15T02:24:31;99735.55;;;3.47;61.63
42067;BME280;27734;47.028;28.820;2023-03-15T02:27:04;99738.38;;;3.51;62.68
42067;BME280;27734;47.028;28.820;2023-03-15T02:29:36;99739.34;;;3.53;61.82
42067;BME280;27734;47.028;28.820;2023-03-15T02:32:08;99736.98;;;3.58;61.65
42067;BME280;27734;47.028;28.820;2023-03-15T02:34:39;99735.38;;;3.60;62.71
42067;BME280;27734;47.028;28.820;2023-03-15T02:37:12;99738.94;;;3.62;62.66
42067;BME280;27734;47.028;28.820;2023-03-15T02:39:43;99742.56;;;3.66;62.54
42067;BME280;27734;47.028;28.820;2023-03-15T02:42:16;99739.25;;;3.68;61.91
42067;BME280;27734;47.028;28.820;2023-03-15T02:44:49;99744.67;;;3.73;62.29
42067;BME280;27734;47.028;28.820;2023-03-15T02:47:24;99744.75;;;3.74;62.05
42067;BME280;27734;47.028;28.820;2023-03-15T02:49:57;99742.31;;;3.77;61.82
42067;BME280;27734;47.028;28.820;2023-03-15T02:52:28;99756.25;;;3.80;62.84
42067;BME280;27734;47.028;28.820;2023-03-15T02:54:59;99758.05;;;3.81;63.27
42067;BME280;27734;47.028;28.820;2023-03-15T02:57:31;99746.75;;;3.80;63.64
42067;BME280;27734;47.028;28.820;2023-03-15T03:00:04;99741.55;;;3.80;63.48
42067;BME280;27734;47.028;28.820;2023-03-15T03:02:45;99740.75;;;3.81;62.94
42067;BME280;27734;47.028;28.820;2023-03-15T03:05:17;99738.16;;;3.81;65.95
42067;BME280;27734;47.028;28.820;2023-03-15T03:07:51;99744.98;;;3.79;65.71
42067;BME280;27734;47.028;28.820;2023-03-15T03:10:24;99755.37;;;3.79;63.83
42067;BME280;27734;47.028;28.820;2023-03-15T03:12:59;99743.35;;;3.81;64.34
42067;BME280;27734;47.028;28.820;2023-03-15T03:15:36;99744.39;;;3.85;63.95
42067;BME280;27734;47.028;28.820;2023-03-15T03:18:08;99735.56;;;3.81;65.46
42067;BME280;27734;47.028;28.820;2023-03-15T03:20:44;99735.33;;;3.76;65.03
42067;BME280;27734;47.028;28.820;2023-03-15T03:23:15;99740.60;;;3.78;65.20
42067;BME280;27734;47.028;28.820;2023-03-15T03:25:47;99734.53;;;3.77;65.02
42067;BME280;27734;47.028;28.820;2023-03-15T03:28:19;99735.48;;;3.80;64.39
42067;BME280;27734;47.028;28.820;2023-03-15T03:30:52;99730.45;;;3.83;64.39
42067;BME280;27734;47.028;28.820;2023-03-15T03:33:23;99733.20;;;3.86;66.12
42067;BME280;27734;47.028;28.820;2023-03-15T03:36:00;99732.32;;;3.85;66.72
42067;BME280;27734;47.028;28.820;2023-03-15T03:38:33;99738.31;;;3.84;65.54
42067;BME280;27734;47.028;28.820;2023-03-15T03:41:05;99734.00;;;3.85;65.48
42067;BME280;27734;47.028;28.820;2023-03-15T03:43:36;99735.80;;;3.86;65.63
42067;BME280;27734;47.028;28.820;2023-03-15T03:46:08;99742.63;;;3.84;65.16
42067;BME280;27734;47.028;28.820;2023-03-15T03:48:42;99732.32;;;3.85;66.23
42067;BME280;27734;47.028;28.820;2023-03-15T03:51:13;99736.67;;;3.86;66.16
42067;BME280;27734;47.028;28.820;2023-03-15T03:53:45;99736.83;;;3.89;66.23
42067;BME280;27734;47.028;28.820;2023-03-15T03:56:16;99742.94;;;3.90;66.36
42067;BME280;27734;47.028;28.820;2023-03-15T03:58:47;99742.17;;;3.92;67.36
42067;BME280;27734;47.028;28.820;2023-03-15T04:01:23;99743.02;;;3.91;66.24
42067;BME280;27734;47.028;28.820;2023-03-15T04:03:56;99744.69;;;3.91;65.97
42067;BME280;27734;47.028;28.820;2023-03-15T04:06:30;99738.78;;;3.93;67.24
42067;BME280;27734;47.028;28.820;2023-03-15T04:09:01;99731.95;;;3.95;66.54
42067;BME280;27734;47.028;28.820;2023-03-15T04:11:41;99733.02;;;3.99;66.56
42067;BME280;27734;47.028;28.820;2023-03-15T04:14:14;99734.84;;;4.02;66.28
42067;BME280;27734;47.028;28.820;2023-03-15T04:16:47;99734.92;;;4.03;66.69
42067;BME280;27734;47.028;28.820;2023-03-15T04:19:22;99728.05;;;4.04;67.10
42067;BME280;27734;47.028;28.820;2023-03-15T04:21:54;99727.97;;;4.02;66.70
42067;BME280;27734;47.028;28.820;2023-03-15T04:24:45;99731.45;;;4.03;65.76
42067;BME280;27734;47.028;28.820;2023-03-15T04:27:39;99734.20;;;4.06;66.22
42067;BME280;27734;47.028;28.820;2023-03-15T04:30:32;99743.86;;;4.08;65.88
42067;BME280;27734;47.028;28.820;2023-03-15T04:33:24;99743.93;;;4.10;65.69
42067;BME280;27734;47.028;28.820;2023-03-15T04:36:16;99736.22;;;4.11;67.15
42067;BME280;27734;47.028;28.820;2023-03-15T04:39:08;99738.97;;;4.14;66.10
42067;BME280;27734;47.028;28.820;2023-03-15T04:42:09;99741.71;;;4.18;66.10
42067;BME280;27734;47.028;28.820;2023-03-15T04:45:04;99744.45;;;4.21;66.25
42067;BME280;27734;47.028;28.820;2023-03-15T04:47:59;99748.08;;;4.24;66.14
42067;BME280;27734;47.028;28.820;2023-03-15T04:50:47;99747.40;;;4.28;65.31
42067;BME280;27734;47.028;28.820;2023-03-15T04:53:24;99739.83;;;4.33;65.94
42067;BME280;27734;47.028;28.820;2023-03-15T04:55:55;99739.17;;;4.37;66.43
42067;BME280;27734;47.028;28.820;2023-03-15T04:59:05;99718.61;;;4.42;67.58
42067;BME280;27734;47.028;28.820;2023-03-15T05:01:52;99723.95;;;4.45;66.71
42067;BME280;27734;47.028;28.820;2023-03-15T05:04:33;99717.26;;;4.50;66.58
42067;BME280;27734;47.028;28.820;2023-03-15T05:07:27;99714.14;;;4.57;66.33
42067;BME280;27734;47.028;28.820;2023-03-15T05:10:18;99717.91;;;4.64;67.44
42067;BME280;27734;47.028;28.820;2023-03-15T05:13:09;99733.80;;;4.70;66.74
42067;BME280;27734;47.028;28.820;2023-03-15T05:16:13;99732.25;;;4.74;66.84
42067;BME280;27734;47.028;28.820;2023-03-15T05:18:53;99714.09;;;4.75;66.82
42067;BME280;27734;47.028;28.820;2023-03-15T05:21:46;99730.11;;;4.84;67.07
42067;BME280;27734;47.028;28.820;2023-03-15T05:24:37;99733.98;;;4.93;66.60
42067;BME280;27734;47.028;28.820;2023-03-15T05:27:38;99736.02;;;5.00;67.23
42067;BME280;27734;47.028;28.820;2023-03-15T05:30:29;99724.28;;;5.08;66.87
42067;BME280;27734;47.028;28.820;2023-03-15T05:33:20;99727.23;;;5.16;67.09
42067;BME280;27734;47.028;28.820;2023-03-15T05:36:14;99726.13;;;5.30;67.26
42067;BME280;27734;47.028;28.820;2023-03-15T05:39:22;99728.29;;;5.40;68.08
42067;BME280;27734;47.028;28.820;2023-03-15T05:42:13;99725.95;;;5.47;67.10
42067;BME280;27734;47.028;28.820;2023-03-15T05:45:03;99722.00;;;5.55;67.66
42067;BME280;27734;47.028;28.820;2023-03-15T05:47:53;99718.00;;;5.63;69.09
42067;BME280;27734;47.028;28.820;2023-03-15T05:50:54;99721.68;;;5.68;68.79
42067;BME280;27734;47.028;28.820;2023-03-15T05:53:39;99723.47;;;5.69;68.47
42067;BME280;27734;47.028;28.820;2023-03-15T05:56:29;99728.00;;;5.73;68.60
42067;BME280;27734;47.028;28.820;2023-03-15T05:59:30;99736.95;;;5.80;68.55
42067;BME280;27734;47.028;28.820;2023-03-15T06:02:07;99737.02;;;5.82;69.57
42067;BME280;27734;47.028;28.820;2023-03-15T06:04:45;99745.64;;;5.81;68.71
42067;BME280;27734;47.028;28.820;2023-03-15T06:07:19;99748.05;;;5.76;70.33
42067;BME280;27734;47.028;28.820;2023-03-15T06:09:51;99744.63;;;5.77;70.36
42067;BME280;27734;47.028;28.820;2023-03-15T06:12:22;99752.64;;;5.82;71.09
42067;BME280;27734;47.028;28.820;2023-03-15T06:14:55;99747.63;;;5.86;69.79
42067;BME280;27734;47.028;28.820;2023-03-15T06:17:26;99771.19;;;5.89;69.52
42067;BME280;27734;47.028;28.820;2023-03-15T06:19:59;99761.52;;;5.87;72.08
42067;BME280;27734;47.028;28.820;2023-03-15T06:22:54;99768.66;;;5.91;69.46
42067;BME280;27734;47.028;28.820;2023-03-15T06:25:34;99755.02;;;5.97;69.06
42067;BME280;27734;47.028;28.820;2023-03-15T06:28:05;99755.20;;;6.01;69.84
42067;BME280;27734;47.028;28.820;2023-03-15T06:30:37;99750.26;;;6.07;69.64
42067;BME280;27734;47.028;28.820;2023-03-15T06:33:09;99748.88;;;6.16;69.21
42067;BME280;27734;47.028;28.820;2023-03-15T06:35:42;99744.99;;;6.27;69.23
42067;BME280;27734;47.028;28.820;2023-03-15T06:38:15;99743.58;;;6.35;68.98
42067;BME280;27734;47.028;28.820;2023-03-15T06:40:47;99749.91;;;6.42;68.87
42067;BME280;27734;47.028;28.820;2023-03-15T06:43:18;99748.41;;;6.47;69.42
42067;BME280;27734;47.028;28.820;2023-03-15T06:45:52;99743.31;;;6.50;69.06
42067;BME280;27734;47.028;28.820;2023-03-15T06:48:28;99745.26;;;6.56;68.45
42067;BME280;27734;47.028;28.820;2023-03-15T06:51:01;99742.77;;;6.59;69.33
42067;BME280;27734;47.028;28.820;2023-03-15T06:53:35;99743.13;;;6.68;68.82
42067;BME280;27734;47.028;28.820;2023-03-15T06:56:07;99735.55;;;6.74;69.07
42067;BME280;27734;47.028;28.820;2023-03-15T06:58:39;99727.84;;;6.77;68.96
42067;BME280;27734;47.028;28.820;2023-03-15T07:01:12;99722.05;;;6.84;68.68
42067;BME280;27734;47.028;28.820;2023-03-15T07:03:43;99719.67;;;6.91;69.72
42067;BME280;27734;47.028;28.820;2023-03-15T07:06:17;99711.34;;;7.01;68.48
42067;BME280;27734;47.028;28.820;2023-03-15T07:08:49;99719.69;;;7.15;68.72
42067;BME280;27734;47.028;28.820;2023-03-15T07:11:21;99719.20;;;7.25;68.79
42067;BME280;27734;47.028;28.820;2023-03-15T07:13:54;99716.98;;;7.36;68.48
42067;BME280;27734;47.028;28.820;2023-03-15T07:16:27;99719.28;;;7.52;68.27
42067;BME280;27734;47.028;28.820;2023-03-15T07:19:00;99707.31;;;7.58;67.81
42067;BME280;27734;47.028;28.820;2023-03-15T07:21:32;99710.13;;;7.64;67.96
42067;BME280;27734;47.028;28.820;2023-03-15T07:24:05;99699.95;;;7.71;67.40
42067;BME280;27734;47.028;28.820;2023-03-15T07:26:43;99689.88;;;7.82;67.32
42067;BME280;27734;47.028;28.820;2023-03-15T07:29:15;99675.08;;;7.83;67.04
42067;BME280;27734;47.028;28.820;2023-03-15T07:31:47;99663.86;;;7.85;66.82
42067;BME280;27734;47.028;28.820;2023-03-15T07:34:19;99659.86;;;7.97;66.27
42067;BME280;27734;47.028;28.820;2023-03-15T07:36:50;99661.92;;;8.07;66.54
42067;BME280;27734;47.028;28.820;2023-03-15T07:39:23;99664.92;;;8.19;66.23
42067;BME280;27734;47.028;28.820;2023-03-15T07:41:55;99668.13;;;8.38;65.89
42067;BME280;27734;47.028;28.820;2023-03-15T07:44:35;99668.22;;;8.41;64.97
42067;BME280;27734;47.028;28.820;2023-03-15T07:47:12;99659.55;;;8.42;64.80
42067;BME280;27734;47.028;28.820;2023-03-15T07:49:46;99664.19;;;8.51;65.19
42067;BME280;27734;47.028;28.820;2023-03-15T07:52:17;99652.39;;;8.63;64.53
42067;BME280;27734;47.028;28.820;2023-03-15T07:54:55;99636.84;;;8.68;64.78
42067;BME280;27734;47.028;28.820;2023-03-15T07:57:30;99632.01;;;8.82;65.06
42067;BME280;27734;47.028;28.820;2023-03-15T08:00:03;99626.09;;;8.89;64.77
42067;BME280;27734;47.028;28.820;2023-03-15T08:02:42;99628.13;;;8.99;64.22
42067;BME280;27734;47.028;28.820;2023-03-15T08:05:13;99629.18;;;9.06;64.35
42067;BME280;27734;47.028;28.820;2023-03-15T08:07:49;99632.02;;;9.14;62.57
42067;BME280;27734;47.028;28.820;2023-03-15T08:10:21;99634.71;;;9.17;63.47
42067;BME280;27734;47.028;28.820;2023-03-15T08:12:55;99640.08;;;9.22;63.41
42067;BME280;27734;47.028;28.820;2023-03-15T08:15:30;99631.77;;;9.37;63.63
42067;BME280;27734;47.028;28.820;2023-03-15T08:18:02;99628.56;;;9.48;63.45
42067;BME280;27734;47.028;28.820;2023-03-15T08:20:35;99634.91;;;9.58;63.37
42067;BME280;27734;47.028;28.820;2023-03-15T08:23:09;99628.20;;;9.68;63.32
42067;BME280;27734;47.028;28.820;2023-03-15T08:25:46;99635.50;;;9.81;61.97
42067;BME280;27734;47.028;28.820;2023-03-15T08:28:19;99637.51;;;9.92;62.28
42067;BME280;27734;47.028;28.820;2023-03-15T08:30:50;99652.55;;;9.99;61.01
42067;BME280;27734;47.028;28.820;2023-03-15T08:33:21;99659.80;;;10.11;62.11
42067;BME280;27734;47.028;28.820;2023-03-15T08:35:55;99667.78;;;10.15;60.41
42067;BME280;27734;47.028;28.820;2023-03-15T08:38:27;99644.33;;;10.21;60.64
42067;BME280;27734;47.028;28.820;2023-03-15T08:40:59;99650.63;;;10.30;61.00
42067;BME280;27734;47.028;28.820;2023-03-15T08:43:32;99656.13;;;10.39;60.56
42067;BME280;27734;47.028;28.820;2023-03-15T08:46:04;99647.59;;;10.48;60.66
42067;BME280;27734;47.028;28.820;2023-03-15T08:48:36;99646.89;;;10.56;60.60
42067;BME280;27734;47.028;28.820;2023-03-15T08:51:07;99651.50;;;10.67;59.57
42067;BME280;27734;47.028;28.820;2023-03-15T08:53:44;99663.81;;;10.69;59.09
42067;BME280;27734;47.028;28.820;2023-03-15T08:56:21;99655.19;;;10.76;57.81
42067;BME280;27734;47.028;28.820;2023-03-15T08:58:52;99659.77;;;10.85;58.17
42067;BME280;27734;47.028;28.820;2023-03-15T09:01:29;99655.55;;;10.93;58.50
42067;BME280;27734;47.028;28.820;2023-03-15T09:04:02;99663.61;;;11.03;58.56
42067;BME280;27734;47.028;28.820;2023-03-15T09:06:37;99646.05;;;10.99;56.64
42067;BME280;27734;47.028;28.820;2023-03-15T09:09:25;99654.11;;;11.09;57.72
42067;BME280;27734;47.028;28.820;2023-03-15T09:11:58;99650.92;;;11.24;57.84
42067;BME280;27734;47.028;28.820;2023-03-15T09:14:29;99655.30;;;11.24;56.89
42067;BME280;27734;47.028;28.820;2023-03-15T09:17:03;99651.06;;;11.32;56.48
42067;BME280;27734;47.028;28.820;2023-03-15T09:19:37;99649.11;;;11.22;56.24
42067;BME280;27734;47.028;28.820;2023-03-15T09:22:10;99660.58;;;11.25;56.54
42067;BME280;27734;47.028;28.820;2023-03-15T09:24:44;99654.59;;;11.34;56.53
42067;BME280;27734;47.028;28.820;2023-03-15T09:27:16;99661.75;;;11.41;56.86
42067;BME280;27734;47.028;28.820;2023-03-15T09:29:47;99669.08;;;11.58;56.73
42067;BME280;27734;47.028;28.820;2023-03-15T09:32:19;99671.23;;;11.82;56.31
42067;BME280;27734;47.028;28.820;2023-03-15T09:34:52;99673.15;;;11.91;57.00
42067;BME280;27734;47.028;28.820;2023-03-15T09:37:35;99669.73;;;11.95;56.41
42067;BME280;27734;47.028;28.820;2023-03-15T09:40:24;99677.61;;;11.95;56.70
42067;BME280;27734;47.028;28.820;2023-03-15T09:43:48;99684.16;;;11.69;55.83
42067;BME280;27734;47.028;28.820;2023-03-15T09:46:27;99695.05;;;11.42;56.51
42067;BME280;27734;47.028;28.820;2023-03-15T09:49:06;99691.28;;;11.29;56.87
42067;BME280;27734;47.028;28.820;2023-03-15T09:51:43;99695.44;;;11.18;56.94
42067;BME280;27734;47.028;28.820;2023-03-15T09:54:25;99697.09;;;11.13;57.29
42067;BME280;27734;47.028;28.820;2023-03-15T09:57:33;99700.07;;;10.89;57.50
42067;BME280;27734;47.028;28.820;2023-03-15T10:00:14;99710.16;;;10.70;57.78
42067;BME280;27734;47.028;28.820;2023-03-15T10:02:56;99695.89;;;10.57;57.90
42067;BME280;27734;47.028;28.820;2023-03-15T10:05:43;99705.08;;;10.38;58.07
42067;BME280;27734;47.028;28.820;2023-03-15T10:08:20;99693.20;;;10.18;58.78
42067;BME280;27734;47.028;28.820;2023-03-15T10:10:55;99699.05;;;10.07;58.29
42067;BME280;27734;47.028;28.820;2023-03-15T10:13:44;99696.23;;;10.00;59.03
42067;BME280;27734;47.028;28.820;2023-03-15T10:16:27;99710.13;;;9.96;59.18
42067;BME280;27734;47.028;28.820;2023-03-15T10:19:10;99709.02;;;9.87;58.96
42067;BME280;27734;47.028;28.820;2023-03-15T10:21:55;99700.12;;;9.81;59.24
42067;BME280;27734;47.028;28.820;2023-03-15T10:24:37;99707.83;;;9.75;59.68
42067;BME280;27734;47.028;28.820;2023-03-15T10:27:17;99705.05;;;9.68;59.54
42067;BME280;27734;47.028;28.820;2023-03-15T10:30:16;99695.28;;;9.63;60.43
42067;BME280;27734;47.028;28.820;2023-03-15T10:32:54;99700.09;;;9.46;62.39
42067;BME280;27734;47.028;28.820;2023-03-15T10:35:29;99692.06;;;9.40;60.54
42067;BME280;27734;47.028;28.820;2023-03-15T10:38:01;99692.81;;;9.35;60.62
42067;BME280;27734;47.028;28.820;2023-03-15T10:40:42;99692.86;;;9.37;60.58
42067;BME280;27734;47.028;28.820;2023-03-15T10:43:27;99691.16;;;9.39;60.96
42067;BME280;27734;47.028;28.820;2023-03-15T10:46:13;99682.39;;;9.37;60.75
42067;BME280;27734;47.028;28.820;2023-03-15T10:48:57;99683.22;;;9.36;61.19
42067;BME280;27734;47.028;28.820;2023-03-15T10:51:36;99687.58;;;9.35;61.95
42067;BME280;27734;47.028;28.820;2023-03-15T10:54:19;99675.28;;;9.33;61.82
42067;BME280;27734;47.028;28.820;2023-03-15T10:56:58;99682.30;;;9.34;62.19
42067;BME280;27734;47.028;28.820;2023-03-15T10:59:37;99668.29;;;9.32;62.03
42067;BME280;27734;47.028;28.820;2023-03-15T11:02:28;99662.10;;;9.30;62.44
42067;BME280;27734;47.028;28.820;2023-03-15T11:05:18;99673.44;;;9.29;62.06
42067;BME280;27734;47.028;28.820;2023-03-15T11:07:56;99665.63;;;9.30;61.85
42067;BME280;27734;47.028;28.820;2023-03-15T11:10:33;99669.83;;;9.25;63.85
42067;BME280;27734;47.028;28.820;2023-03-15T11:13:12;99662.80;;;9.23;63.57
42067;BME280;27734;47.028;28.820;2023-03-15T11:15:55;99659.31;;;9.24;63.67
42067;BME280;27734;47.028;28.820;2023-03-15T11:18:33;99663.63;;;9.22;63.01
42067;BME280;27734;47.028;28.820;2023-03-15T11:21:10;99654.04;;;9.22;64.65
42067;BME280;27734;47.028;28.820;2023-03-15T11:23:48;99654.99;;;9.24;63.95
42067;BME280;27734;47.028;28.820;2023-03-15T11:26:35;99647.97;;;9.23;63.59
42067;BME280;27734;47.028;28.820;2023-03-15T11:29:16;99638.33;;;9.22;63.85
42067;BME280;27734;47.028;28.820;2023-03-15T11:31:55;99628.73;;;9.21;64.59
42067;BME280;27734;47.028;28.820;2023-03-15T11:34:41;99628.73;;;9.21;65.61
42067;BME280;27734;47.028;28.820;2023-03-15T11:37:20;99628.48;;;9.12;65.67
42067;BME280;27734;47.028;28.820;2023-03-15T11:39:58;99614.14;;;8.99;65.47
42067;BME280;27734;47.028;28.820;2023-03-15T11:42:40;99626.39;;;9.00;65.73
42067;BME280;27734;47.028;28.820;2023-03-15T11:45:21;99622.77;;;8.95;65.84
42067;BME280;27734;47.028;28.820;2023-03-15T11:48:00;99614.97;;;8.96;66.26
42067;BME280;27734;47.028;28.820;2023-03-15T11:50:48;99619.37;;;8.99;65.96
42067;BME280;27734;47.028;28.820;2023-03-15T11:53:29;99627.23;;;8.99;65.84
42067;BME280;27734;47.028;28.820;2023-03-15T11:56:21;99629.05;;;9.02;66.54
42067;BME280;27734;47.028;28.820;2023-03-15T11:59:07;99629.05;;;9.02;66.39
42067;BME280;27734;47.028;28.820;2023-03-15T12:01:46;99611.70;;;9.05;65.71
42067;BME280;27734;47.028;28.820;2023-03-15T12:04:40;99614.31;;;9.05;67.65
42067;BME280;27734;47.028;28.820;2023-03-15T12:10:37;99623.77;;;9.00;68.12
42067;BME280;27734;47.028;28.820;2023-03-15T12:13:21;99616.67;;;8.96;67.63
42067;BME280;27734;47.028;28.820;2023-03-15T12:15:53;99623.60;;;8.94;67.50
42067;BME280;27734;47.028;28.820;2023-03-15T12:18:40;99626.27;;;8.95;67.40
42067;BME280;27734;47.028;28.820;2023-03-15T12:21:23;99623.69;;;8.97;67.81
42067;BME280;27734;47.028;28.820;2023-03-15T12:24:04;99618.45;;;8.97;67.85
42067;BME280;27734;47.028;28.820;2023-03-15T12:26:44;99624.56;;;8.97;68.30
42067;BME280;27734;47.028;28.820;2023-03-15T12:29:24;99617.58;;;8.96;68.42
42067;BME280;27734;47.028;28.820;2023-03-15T12:32:10;99615.05;;;8.99;67.97
42067;BME280;27734;47.028;28.820;2023-03-15T12:34:49;99625.64;;;9.04;67.95
42067;BME280;27734;47.028;28.820;2023-03-15T12:37:25;99616.14;;;9.08;68.44
42067;BME280;27734;47.028;28.820;2023-03-15T12:40:28;99618.75;;;9.08;69.47
42067;BME280;27734;47.028;28.820;2023-03-15T12:43:02;99620.58;;;9.10;67.88
42067;BME280;27734;47.028;28.820;2023-03-15T12:45:43;99626.65;;;9.09;69.23
42067;BME280;27734;47.028;28.820;2023-03-15T12:48:29;99629.27;;;9.09;68.31
42067;BME280;27734;47.028;28.820;2023-03-15T12:51:06;99613.52;;;9.08;68.36
42067;BME280;27734;47.028;28.820;2023-03-15T12:53:52;99615.44;;;9.13;68.05
42067;BME280;27734;47.028;28.820;2023-03-15T12:56:42;99617.27;;;9.17;68.07
42067;BME280;27734;47.028;28.820;2023-03-15T12:59:26;99615.59;;;9.20;68.61
42067;BME280;27734;47.028;28.820;2023-03-15T13:02:01;99615.52;;;9.16;68.60
42067;BME280;27734;47.028;28.820;2023-03-15T13:04:34;99616.39;;;9.17;68.70
42067;BME280;27734;47.028;28.820;2023-03-15T13:07:24;99615.56;;;9.18;68.49
42067;BME280;27734;47.028;28.820;2023-03-15T13:13:02;99613.94;;;9.23;67.95
42067;BME280;27734;47.028;28.820;2023-03-15T13:15:38;99616.56;;;9.23;68.58
42067;BME280;27734;47.028;28.820;2023-03-15T13:18:17;99606.96;;;9.24;68.15
42067;BME280;27734;47.028;28.820;2023-03-15T13:21:06;99616.64;;;9.26;67.77
42067;BME280;27734;47.028;28.820;2023-03-15T13:23:50;99604.39;;;9.25;68.30
42067;BME280;27734;47.028;28.820;2023-03-15T13:26:33;99593.59;;;9.13;67.94
42067;BME280;27734;47.028;28.820;2023-03-15T13:29:13;99607.88;;;9.24;68.18
42067;BME280;27734;47.028;28.820;2023-03-15T13:31:47;99609.70;;;9.28;67.76
42067;BME280;27734;47.028;28.820;2023-03-15T13:34:31;99614.94;;;9.28;69.22
42067;BME280;27734;47.028;28.820;2023-03-15T13:37:15;99611.41;;;9.26;67.73
42067;BME280;27734;47.028;28.820;2023-03-15T13:39:56;99619.30;;;9.28;68.11
42067;BME280;27734;47.028;28.820;2023-03-15T13:42:30;99617.47;;;9.25;68.37
42067;BME280;27734;47.028;28.820;2023-03-15T13:45:12;99617.44;;;9.24;68.13
42067;BME280;27734;47.028;28.820;2023-03-15T13:47:45;99615.64;;;9.21;68.80
42067;BME280;27734;47.028;28.820;2023-03-15T13:50:18;99611.16;;;9.17;68.09
42067;BME280;27734;47.028;28.820;2023-03-15T13:52:55;99606.80;;;9.17;68.04
42067;BME280;27734;47.028;28.820;2023-03-15T13:55:30;99603.34;;;9.18;68.56
42067;BME280;27734;47.028;28.820;2023-03-15T13:58:06;99608.62;;;9.20;68.20
42067;BME280;27734;47.028;28.820;2023-03-15T14:00:39;99602.52;;;9.20;68.45
42067;BME280;27734;47.028;28.820;2023-03-15T14:03:15;99596.41;;;9.21;68.36